Nearby METAR Reports

 

PAEN - Kenai, Alaska, USA
Distance from station: ESE 2mi, 4km
Updated: Mon, 23-Oct-2017 8:53am AKDT
Overcast
Overcast
 Wind from NNE
Wind: NNE 14 mph , 22 km/h
Temperature: 28°F , -2°C
Wind Chill: 17°F , -8°C
Dew Point: 27°F , -3°C
Humidity: 93%
Barometer: 29.74 inHg , 1007.1 hPa
Clouds: Overcast
Visibility: 10 miles , 16 km
Cloud details: Overcast 11000 ft
2017/10/23 16:53 PAEN 231653Z AUTO 02012KT 10SM OVC110 M02/M03 A2974 RMK AO2 SLP073 T10171033 TSNO
PASX - Soldotna, Alaska, USA
Distance from station: SE 12mi, 19km
Updated: Mon, 23-Oct-2017 8:56am AKDT
Few Clouds
Few Clouds
 Wind from varies
Wind: varies 6 mph , 9 km/h
Temperature: 28°F , -2°C
Wind Chill: 21°F , -6°C
Dew Point: 19°F , -7°C
Humidity: 69%
Barometer: 29.41 inHg , 995.9 hPa
Clouds: Few Clouds
Visibility: 10 miles , 16 km
Cloud details: Few Clouds 12000 ft
2017/10/23 16:56 PASX 231656Z AUTO VRB05KT 10SM FEW120 M02/M07 A2941 RMK AO2 SLP968 T10221067 FZRANO $
 
PANC - Anchorage Intl, Alaska, USA
Distance from station: NE 59mi, 96km
Updated: Mon, 23-Oct-2017 8:53am AKDT
Mostly cloudy
Mostly cloudy
 Wind from NNW
Wind: NNW 6 mph , 9 km/h
Temperature: 27°F , -3°C
Wind Chill: 20°F , -7°C
Dew Point: 19°F , -7°C
Humidity: 74%
Barometer: 29.81 inHg , 1009.5 hPa
Clouds: Mostly cloudy
Visibility: 10 miles , 16 km
Cloud details: Partly cloudy 6000 ft
Mostly cloudy 9000 ft
2017/10/23 16:53 PANC 231653Z 34005KT 10SM SCT060 BKN090 M03/M07 A2981 RMK AO2 SLP097 T10281067
PALH - Anchorage/Lake H, Alaska, USA
Distance from station: NE 61mi, 99km
Updated: Mon, 23-Oct-2017 8:53am AKDT
Mostly cloudy
Mostly cloudy
 Wind from NNW
Wind: NNW 7 mph , 11 km/h
Temperature: 27°F , -3°C
Wind Chill: 19°F , -7°C
Dew Point: 19°F , -7°C
Humidity: 74%
Barometer: 29.82 inHg , 1009.8 hPa
Clouds: Mostly cloudy
Visibility: 10 miles , 16 km
Cloud details: Mostly cloudy 11000 ft
2017/10/23 16:53 PALH 231653Z 33006KT 10SM BKN110 M03/M07 A2982 RMK AO2 SLP100 T10281067
 
PAHO - Homer, Alaska, USA
Distance from station: S 66mi, 106km
Updated: Mon, 23-Oct-2017 8:53am AKDT
Overcast
Overcast
 Wind from SE
Wind: SE 12 mph , 19 km/h
Temperature: 39°F , 4°C
Wind Chill: 32°F , 0°C
Dew Point: 28°F , -2°C
Humidity: 65%
Barometer: 29.68 inHg , 1005.1 hPa
Clouds: Overcast
Visibility: 10 miles , 16 km
Cloud details: Mostly cloudy 5500 ft
Mostly cloudy 7000 ft
Overcast 9500 ft
2017/10/23 16:53 PAHO 231653Z 14010KT 10SM BKN055 BKN070 OVC095 04/M02 A2968 RMK AO2 PK WND 11027/1619 SLP051 T00441022
PAMR - Anchorage/Merril, Alaska, USA
Distance from station: NE 66mi, 106km
Updated: Mon, 23-Oct-2017 8:53am AKDT
Overcast
Overcast
 Wind from varies
Wind: varies 7 mph , 11 km/h
Temperature: 27°F , -3°C
Wind Chill: 19°F , -7°C
Dew Point: 16°F , -9°C
Humidity: 64%
Barometer: 29.80 inHg , 1009.1 hPa
Clouds: Overcast
Visibility: 10 miles , 16 km
Cloud details: Few Clouds 9000 ft
Overcast 11000 ft
2017/10/23 16:53 PAMR 231653Z VRB06KT 10SM FEW090 OVC110 M03/M09 A2980 RMK AO2 SLP094 T10281089 $
 
PAED - Elmendorf Afb, Alaska, USA
Distance from station: NE 69mi, 110km
Updated: Mon, 23-Oct-2017 8:56am AKDT
Overcast
Overcast
 Wind from NNW
Wind: NNW 12 mph , 19 km/h
Temperature: 28°F , -2°C
Wind Chill: 18°F , -8°C
Dew Point: 16°F , -9°C
Humidity: 59%
Barometer: 29.79 inHg , 1008.8 hPa
Clouds: Overcast
Visibility: 10 miles , 16 km
Cloud details: Overcast 9500 ft
2017/10/23 16:56 PAED 231656Z AUTO 33010KT 10SM OVC095 M02/M09 A2979 RMK AO2 SLP086 T10211088
PAWD - Seward, Alaska, USA
Distance from station: ESE 71mi, 115km
Updated: Mon, 23-Oct-2017 8:53am AKDT
Overcast
Overcast
 Wind from N
Wind: N 5 mph , 7 km/h
Temperature: 27°F , -3°C
Wind Chill: 21°F , -6°C
Dew Point: 23°F , -5°C
Humidity: 86%
Barometer: 29.82 inHg , 1009.8 hPa
Clouds: Overcast
Visibility: 10 miles , 16 km
Cloud details: Overcast 6500 ft
2017/10/23 16:53 PAWD 231653Z AUTO 36004KT 10SM OVC065 M03/M05 A2982 RMK AO2 SLP098 T10281050 TSNO
 
PASC - Deadhorse, Alaska, USA
Distance from station: ENE 670mi, 1078km
Updated: Mon, 23-Oct-2017 8:53am AKDT
Overcast
Overcast
 Wind from SW
Wind: SW 13 mph , 20 km/h
Temperature: 7°F , -14°C
Wind Chill: -9°F , -23°C
Dew Point: 3°F , -16°C
Humidity: 85%
Barometer: 29.83 inHg , 1010.2 hPa
Clouds: Overcast
Visibility: 10 miles , 16 km
Cloud details: Overcast 800 ft
2017/10/23 16:53 PASC 231653Z 23011KT 10SM OVC008 M14/M16 A2983 RMK AO2 SLP104 I1000 T11441156 $
PAAD - Point Thomson, Alaska, USA
Distance from station: ENE 680mi, 1094km
Updated: Mon, 23-Oct-2017 8:55am AKDT
Overcast
Overcast
 Wind from calm
Wind: Calm
Temperature: 3°F , -16°C
Dew Point: -0°F , -18°C
Humidity: 85%
Barometer: 29.85 inHg , 1010.8 hPa
Clouds: Overcast
Visibility: 10 miles , 16 km
Cloud details: Overcast 9000 ft
2017/10/23 16:55 PAAD 231655Z AUTO 00000KT 10SM OVC090 M16/M18 A2985 RMK AO2 T11591181


kenaipeople.com website

Dans Automotive

Lower Peninsula Power Sports

Freddies RoadHouse

Alaska Weather Net

United States Weather Group